Time;durP1;ratioP1;P1;durP2;ratioP2;P2;SDS_P1;SDS_P2;PMS_P1;PMS_P2;Temp;Humidity;BMP_temperature;BMP_pressure;BME280_temperature;BME280_humidity;BME280_pressure;Samples;Min_cycle;Max_cycle;Signal;HPM_P1;HPM_P2
2021/06/25 00:01:52;;;;;;;15.50;9.55;;;17.40;99.90;;;;;;5000620;28;20108;-78
2021/06/25 00:04:18;;;;;;;20.27;11.35;;;17.60;99.90;;;;;;5004123;28;20025;-79
2021/06/25 00:06:43;;;;;;;18.75;11.23;;;17.40;99.90;;;;;;5002102;28;20034;-78
2021/06/25 00:09:09;;;;;;;20.63;12.02;;;17.40;99.90;;;;;;5004958;28;20379;-76
2021/06/25 00:11:35;;;;;;;20.17;12.05;;;17.60;99.90;;;;;;4996684;28;20025;-78
2021/06/25 00:14:00;;;;;;;18.45;12.23;;;17.40;99.90;;;;;;5001134;28;20413;-79
2021/06/25 00:16:26;;;;;;;22.92;13.48;;;17.40;99.90;;;;;;5023432;28;20500;-78
2021/06/25 00:18:51;;;;;;;21.73;13.02;;;17.40;99.90;;;;;;4999789;28;20573;-77
2021/06/25 00:21:17;;;;;;;20.05;12.23;;;17.30;99.90;;;;;;5016874;28;20034;-78
2021/06/25 00:23:43;;;;;;;21.60;13.07;;;17.80;99.90;;;;;;5000061;28;20060;-80
2021/06/25 00:26:08;;;;;;;22.35;13.93;;;17.40;99.90;;;;;;5005767;28;20464;-78
2021/06/25 00:28:34;;;;;;;23.75;14.15;;;17.80;99.90;;;;;;5007529;28;20041;-78
2021/06/25 00:30:59;;;;;;;22.30;14.07;;;17.30;99.90;;;;;;5016737;28;20538;-77
2021/06/25 00:33:25;;;;;;;23.88;14.07;;;17.30;99.90;;;;;;5002402;28;20034;-79
2021/06/25 00:35:51;;;;;;;25.15;13.57;;;17.30;99.90;;;;;;5003559;28;20062;-79
2021/06/25 00:38:16;;;;;;;27.08;15.70;;;17.30;99.90;;;;;;5002944;28;20026;-80
2021/06/25 00:40:42;;;;;;;23.08;14.20;;;17.30;99.90;;;;;;5002675;28;20037;-78
2021/06/25 00:43:07;;;;;;;25.17;15.38;;;17.30;99.90;;;;;;5002879;28;20399;-78
2021/06/25 00:45:33;;;;;;;26.45;15.85;;;17.30;99.90;;;;;;5013487;28;20038;-78
2021/06/25 00:47:59;;;;;;;26.08;15.40;;;17.90;99.90;;;;;;5002267;28;20026;-78
2021/06/25 00:50:30;;;;;;;27.90;14.98;;;18.00;99.90;;;;;;5003653;28;20475;-78
2021/06/25 00:52:57;;;;;;;26.40;15.88;;;17.30;99.90;;;;;;5003716;28;20133;-78
2021/06/25 00:55:24;;;;;;;26.23;15.63;;;17.30;99.90;;;;;;5028124;28;20025;-77
2021/06/25 00:57:50;;;;;;;25.30;15.18;;;17.40;99.90;;;;;;5002573;28;20026;-77
2021/06/25 01:00:16;;;;;;;19.25;11.57;;;17.40;99.90;;;;;;5016468;28;20037;-77
2021/06/25 01:02:42;;;;;;;17.70;11.13;;;17.40;99.90;;;;;;5019816;28;20037;-77
2021/06/25 01:05:09;;;;;;;19.52;10.95;;;17.40;99.90;;;;;;5001020;28;20026;-77
2021/06/25 01:07:35;;;;;;;19.27;11.27;;;17.30;99.90;;;;;;4998710;28;20029;-79
2021/06/25 01:10:04;;;;;;;14.07;9.48;;;17.30;99.90;;;;;;4998686;28;20029;-77
2021/06/25 01:12:29;;;;;;;15.35;9.75;;;17.40;99.90;;;;;;5018289;28;20026;-77
2021/06/25 01:14:55;;;;;;;13.18;8.85;;;17.40;99.90;;;;;;5017116;28;20022;-77
2021/06/25 01:17:36;;;;;;;14.10;9.02;;;17.70;99.90;;;;;;4998226;28;20065;-76
2021/06/25 01:20:06;;;;;;;14.50;8.82;;;17.40;99.90;;;;;;5003814;28;20041;-75
2021/06/25 01:22:38;;;;;;;13.82;9.98;;;17.40;99.90;;;;;;4997708;28;20056;-76
2021/06/25 01:25:07;;;;;;;14.43;9.48;;;17.40;99.90;;;;;;5002559;28;20032;-76
2021/06/25 01:27:33;;;;;;;16.17;10.95;;;17.30;99.90;;;;;;5003012;28;20064;-79
2021/06/25 01:29:59;;;;;;;20.40;11.60;;;17.30;99.90;;;;;;5004098;28;20026;-75
2021/06/25 01:32:25;;;;;;;17.15;12.77;;;17.30;99.90;;;;;;4999773;28;20033;-77
2021/06/25 01:34:52;;;;;;;19.83;13.15;;;17.40;99.90;;;;;;4999614;28;20033;-76
2021/06/25 01:37:18;;;;;;;33.42;15.15;;;;;;;;;;5001271;28;20116;-77
2021/06/25 01:39:47;;;;;;;24.33;15.13;;;17.30;99.90;;;;;;5006245;28;20026;-77
2021/06/25 01:42:13;;;;;;;23.67;15.93;;;17.20;99.90;;;;;;5015672;28;20030;-78
2021/06/25 01:44:39;;;;;;;26.13;16.75;;;17.20;99.90;;;;;;5002529;28;20037;-77
2021/06/25 01:47:05;;;;;;;25.85;16.42;;;17.10;99.90;;;;;;5000019;28;20030;-76
2021/06/25 01:49:32;;;;;;;26.00;16.67;;;17.10;99.90;;;;;;5007708;28;20034;-77
2021/06/25 01:51:58;;;;;;;25.38;16.80;;;17.10;99.90;;;;;;4997214;28;20022;-78
2021/06/25 01:54:24;;;;;;;24.58;16.70;;;17.90;99.90;;;;;;5006839;28;20033;-77
2021/06/25 01:56:49;;;;;;;24.83;16.75;;;17.10;99.90;;;;;;5006979;28;20053;-77
2021/06/25 01:59:16;;;;;;;25.80;16.92;;;17.10;99.90;;;;;;5005567;28;20398;-76
2021/06/25 02:01:42;;;;;;;26.77;17.10;;;17.20;99.90;;;;;;4999489;28;20378;-78
2021/06/25 02:04:08;;;;;;;26.95;17.27;;;17.10;99.90;;;;;;4999720;28;20523;-77
2021/06/25 02:06:33;;;;;;;28.25;17.77;;;17.10;99.90;;;;;;5005649;28;20360;-76
2021/06/25 02:09:01;;;;;;;26.27;17.10;;;17.10;99.90;;;;;;5012502;28;20033;-77
2021/06/25 02:11:27;;;;;;;24.33;15.88;;;17.20;99.90;;;;;;5004792;28;20022;-77
2021/06/25 02:13:53;;;;;;;24.40;16.38;;;17.20;99.90;;;;;;5008946;28;20157;-76
2021/06/25 02:16:18;;;;;;;22.27;15.07;;;17.10;99.90;;;;;;5001452;28;20128;-78
2021/06/25 02:18:44;;;;;;;23.15;16.83;;;17.20;99.90;;;;;;5007185;28;20033;-78
2021/06/25 02:21:10;;;;;;;25.35;15.32;;;;;;;;;;5013986;28;20048;-77
2021/06/25 02:23:36;;;;;;;21.58;14.85;;;17.10;99.90;;;;;;5006287;28;20084;-78
2021/06/25 02:26:02;;;;;;;20.15;14.60;;;17.10;99.90;;;;;;5025555;28;20479;-77
2021/06/25 02:28:28;;;;;;;23.55;14.73;;;17.20;99.90;;;;;;5020961;28;20030;-78
2021/06/25 02:30:54;;;;;;;21.23;14.90;;;17.10;99.90;;;;;;5005446;28;20034;-78
2021/06/25 02:33:20;;;;;;;22.67;14.38;;;17.10;99.90;;;;;;5015796;28;20041;-78
2021/06/25 02:35:45;;;;;;;21.95;14.52;;;17.10;99.90;;;;;;5009478;28;20030;-79
2021/06/25 02:38:11;;;;;;;20.67;14.55;;;17.40;99.90;;;;;;5009017;28;20044;-77
2021/06/25 02:40:37;;;;;;;20.48;13.70;;;17.00;99.90;;;;;;5008293;28;20053;-77
2021/06/25 02:43:02;;;;;;;19.90;13.98;;;19.20;99.90;;;;;;5006787;28;20033;-78
2021/06/25 02:45:28;;;;;;;20.30;13.75;;;17.00;99.90;;;;;;5004623;28;20551;-78
2021/06/25 02:47:53;;;;;;;20.35;13.88;;;17.00;99.90;;;;;;5020395;28;20411;-77
2021/06/25 02:50:19;;;;;;;20.30;14.57;;;17.00;99.90;;;;;;5003374;28;20026;-80
2021/06/25 02:52:45;;;;;;;22.55;14.57;;;16.90;99.90;;;;;;5007337;28;20085;-77
2021/06/25 02:55:12;;;;;;;18.98;14.10;;;16.90;99.90;;;;;;5006902;28;20483;-78
2021/06/25 02:57:38;;;;;;;20.05;13.88;;;17.00;99.90;;;;;;5008599;28;20038;-78
2021/06/25 03:00:11;;;;;;;21.20;14.88;;;17.10;99.90;;;;;;5008759;28;20026;-77
2021/06/25 03:02:37;;;;;;;23.58;15.55;;;16.90;99.90;;;;;;4997104;28;20149;-78
2021/06/25 03:05:05;;;;;;;22.60;15.82;;;16.90;99.90;;;;;;5002145;28;20033;-78
2021/06/25 03:07:30;;;;;;;23.40;15.35;;;16.70;99.90;;;;;;5002644;28;20037;-78
2021/06/25 03:09:56;;;;;;;25.27;16.15;;;17.20;99.90;;;;;;5000915;28;20022;-80
2021/06/25 03:12:21;;;;;;;25.95;15.98;;;16.60;99.90;;;;;;5007915;28;20396;-78
2021/06/25 03:14:47;;;;;;;28.70;17.73;;;16.50;99.90;;;;;;5001362;28;20022;-77
2021/06/25 03:17:13;;;;;;;28.50;18.45;;;16.50;99.90;;;;;;5022226;28;20087;-78
2021/06/25 03:19:38;;;;;;;26.52;17.83;;;16.50;99.90;;;;;;5003624;28;20030;-77
2021/06/25 03:22:05;;;;;;;29.77;18.92;;;16.40;99.90;;;;;;5001866;28;20033;-78
2021/06/25 03:24:31;;;;;;;32.90;20.98;;;16.30;99.90;;;;;;5005158;28;20033;-78
2021/06/25 03:26:56;;;;;;;29.30;18.40;;;16.30;99.90;;;;;;5019998;28;20045;-77
2021/06/25 03:29:22;;;;;;;31.17;19.75;;;16.30;99.90;;;;;;5017674;28;20058;-75
2021/06/25 03:31:47;;;;;;;31.10;19.45;;;16.30;99.90;;;;;;5001079;28;20400;-76
2021/06/25 03:34:13;;;;;;;30.42;20.00;;;16.80;99.90;;;;;;5008335;28;20172;-76
2021/06/25 03:36:39;;;;;;;31.45;19.38;;;17.00;99.90;;;;;;5007783;28;20438;-78
2021/06/25 03:39:05;;;;;;;32.80;19.52;;;16.30;99.90;;;;;;5017635;28;20025;-77
2021/06/25 03:41:31;;;;;;;29.38;18.20;;;16.30;99.90;;;;;;5019821;28;20415;-80
2021/06/25 03:43:57;;;;;;;27.55;18.15;;;16.30;99.90;;;;;;4999405;28;20030;-77
2021/06/25 03:46:23;;;;;;;31.25;19.27;;;16.40;99.90;;;;;;4999481;28;20553;-77
2021/06/25 03:48:49;;;;;;;33.83;19.67;;;16.40;99.90;;;;;;5007315;28;20034;-78
2021/06/25 03:51:16;;;;;;;31.23;20.23;;;16.50;99.90;;;;;;4996393;28;20193;-79
2021/06/25 03:53:42;;;;;;;32.88;20.42;;;16.40;99.90;;;;;;5003061;28;20161;-77
2021/06/25 03:56:11;;;;;;;31.00;19.60;;;16.40;99.90;;;;;;5003535;28;20501;-78
2021/06/25 03:58:47;;;;;;;31.02;19.38;;;16.50;99.90;;;;;;5002075;28;20054;-77
2021/06/25 04:01:13;;;;;;;32.03;19.02;;;16.50;99.90;;;;;;5009461;28;20399;-76
2021/06/25 04:03:39;;;;;;;35.80;20.52;;;16.50;99.90;;;;;;5003957;28;20029;-77
2021/06/25 04:06:05;;;;;;;35.60;21.55;;;16.50;99.90;;;;;;5010811;28;20029;-78
2021/06/25 04:08:32;;;;;;;32.53;20.25;;;16.50;99.90;;;;;;5006998;28;20117;-77
2021/06/25 04:10:59;;;;;;;37.55;23.23;;;16.50;99.90;;;;;;5004187;28;20113;-78
2021/06/25 04:13:26;;;;;;;38.33;21.95;;;16.60;99.90;;;;;;5006434;28;20606;-76
2021/06/25 04:15:52;;;;;;;35.70;22.20;;;16.50;99.90;;;;;;5008039;28;20101;-76
2021/06/25 04:18:19;;;;;;;36.95;22.42;;;16.50;99.90;;;;;;4998822;28;20030;-74
2021/06/25 04:20:45;;;;;;;37.92;23.02;;;16.50;99.90;;;;;;5008951;28;20072;-79
2021/06/25 04:23:12;;;;;;;38.95;23.83;;;16.50;99.90;;;;;;4998915;28;20033;-76
2021/06/25 04:25:38;;;;;;;38.42;23.27;;;16.50;99.90;;;;;;4999769;28;20014;-76
2021/06/25 04:28:04;;;;;;;36.65;23.77;;;17.20;99.90;;;;;;4999601;28;20057;-77
2021/06/25 04:30:30;;;;;;;42.10;25.15;;;16.60;99.90;;;;;;4994037;28;20026;-76
2021/06/25 04:32:59;;;;;;;37.65;24.30;;;17.20;99.90;;;;;;4992963;28;20022;-79
2021/06/25 04:35:24;;;;;;;39.40;24.30;;;16.60;99.90;;;;;;4996897;28;20155;-76
2021/06/25 04:37:50;;;;;;;40.30;23.67;;;16.70;99.90;;;;;;4991265;28;20039;-77
2021/06/25 04:40:15;;;;;;;38.45;24.25;;;16.60;99.90;;;;;;4999496;28;20026;-75
2021/06/25 04:42:41;;;;;;;40.55;25.00;;;16.70;99.90;;;;;;5022915;28;20034;-76
2021/06/25 04:45:07;;;;;;;41.00;24.70;;;16.70;99.90;;;;;;5015376;28;20029;-78
2021/06/25 04:47:33;;;;;;;37.30;24.70;;;16.70;99.90;;;;;;5004350;28;20109;-79
2021/06/25 04:49:59;;;;;;;43.63;25.27;;;16.70;99.90;;;;;;5016056;28;20109;-78
2021/06/25 04:52:24;;;;;;;42.45;25.65;;;16.80;99.90;;;;;;5011085;28;20033;-78
2021/06/25 04:54:50;;;;;;;40.17;24.58;;;16.70;99.90;;;;;;5011298;28;20076;-78
2021/06/25 04:57:15;;;;;;;38.17;23.92;;;18.00;99.90;;;;;;4997097;28;20072;-77
2021/06/25 04:59:41;;;;;;;43.35;26.80;;;16.80;99.90;;;;;;4998912;28;20040;-78
2021/06/25 05:02:07;;;;;;;54.28;31.70;;;16.90;99.90;;;;;;4999927;28;20591;-80
2021/06/25 05:04:33;;;;;;;40.78;25.90;;;16.80;99.90;;;;;;4988127;28;20717;-76
2021/06/25 05:06:58;;;;;;;40.42;24.45;;;16.80;99.90;;;;;;4994840;28;20049;-78
2021/06/25 05:09:24;;;;;;;35.53;23.02;;;16.90;99.90;;;;;;5010790;28;20108;-78
2021/06/25 05:11:50;;;;;;;43.22;25.67;;;16.80;99.90;;;;;;4995420;28;20031;-77
2021/06/25 05:14:15;;;;;;;38.70;25.38;;;16.80;99.90;;;;;;5019137;28;20037;-75
2021/06/25 05:16:41;;;;;;;40.63;25.17;;;17.60;99.90;;;;;;5001136;28;20559;-77
2021/06/25 05:19:07;;;;;;;36.88;24.00;;;16.80;99.90;;;;;;4998155;28;20029;-77
2021/06/25 05:21:33;;;;;;;39.60;23.25;;;16.80;99.90;;;;;;4999270;28;20030;-77
2021/06/25 05:23:58;;;;;;;38.95;25.15;;;16.80;99.90;;;;;;4997798;28;20041;-76
2021/06/25 05:26:24;;;;;;;38.28;25.73;;;16.80;99.90;;;;;;4996410;28;20639;-77
2021/06/25 05:28:50;;;;;;;39.10;24.48;;;16.70;99.90;;;;;;5001440;28;20096;-76
2021/06/25 05:31:15;;;;;;;38.60;24.63;;;16.80;99.90;;;;;;4998971;28;20022;-76
2021/06/25 05:33:41;;;;;;;38.55;24.65;;;16.70;99.90;;;;;;5002251;28;20030;-76
2021/06/25 05:36:08;;;;;;;40.72;24.60;;;16.80;99.90;;;;;;5005755;28;20045;-77
2021/06/25 05:38:33;;;;;;;43.60;25.63;;;16.80;99.90;;;;;;5000943;28;20461;-77
2021/06/25 05:40:59;;;;;;;42.53;25.77;;;17.00;99.90;;;;;;5012923;28;20073;-75
2021/06/25 05:43:25;;;;;;;37.78;24.88;;;;;;;;;;5002821;28;20125;-76
2021/06/25 05:45:51;;;;;;;44.53;24.83;;;16.90;99.90;;;;;;5014778;28;20030;-76
2021/06/25 05:48:16;;;;;;;34.45;23.13;;;16.90;99.90;;;;;;5004370;28;20459;-79
2021/06/25 05:50:42;;;;;;;40.40;23.98;;;17.00;99.90;;;;;;5015376;28;20034;-77
2021/06/25 05:53:08;;;;;;;40.50;25.23;;;17.00;99.90;;;;;;4997247;28;20031;-78
2021/06/25 05:55:34;;;;;;;39.40;24.10;;;17.00;99.90;;;;;;5003133;28;20057;-75
2021/06/25 05:58:00;;;;;;;37.53;23.70;;;;;;;;;;5000707;28;20079;-77
2021/06/25 06:00:26;;;;;;;38.65;23.52;;;17.00;99.90;;;;;;5005451;28;20442;-80
2021/06/25 06:02:52;;;;;;;38.83;23.58;;;17.10;99.90;;;;;;4999180;28;20518;-76
2021/06/25 06:05:17;;;;;;;36.22;23.95;;;17.10;99.90;;;;;;5000010;28;20445;-78
2021/06/25 06:07:43;;;;;;;35.70;23.63;;;17.20;99.90;;;;;;4997105;28;20049;-76
2021/06/25 06:10:09;;;;;;;39.35;23.70;;;17.30;99.90;;;;;;5002324;28;20045;-77
2021/06/25 06:12:36;;;;;;;36.35;23.33;;;;;;;;;;5001634;28;20028;-76
2021/06/25 06:15:02;;;;;;;35.10;22.45;;;17.30;99.90;;;;;;5005161;28;20029;-79
2021/06/25 06:17:27;;;;;;;42.88;24.98;;;17.30;99.90;;;;;;5000537;28;20449;-76
2021/06/25 06:19:54;;;;;;;37.60;23.73;;;17.40;99.90;;;;;;4994852;28;20029;-77
2021/06/25 06:33:32;;;;;;;38.25;23.02;;;;;;;;;;4997093;28;20068;-76
2021/06/25 06:36:00;;;;;;;40.97;25.05;;;17.30;99.90;;;;;;5001694;28;20026;-77
2021/06/25 06:38:28;;;;;;;38.22;24.08;;;;;;;;;;5001366;28;20034;-76
2021/06/25 06:40:54;;;;;;;49.70;25.88;;;;;;;;;;5001844;28;20041;-75
2021/06/25 06:43:20;;;;;;;42.20;25.88;;;17.40;99.90;;;;;;5000616;28;20030;-75
2021/06/25 06:45:46;;;;;;;42.13;25.67;;;17.10;99.90;;;;;;5005763;28;20100;-77
2021/06/25 06:48:11;;;;;;;50.88;25.38;;;17.20;99.90;;;;;;5005151;28;20114;-76
2021/06/25 06:50:37;;;;;;;51.38;27.30;;;;;;;;;;4996068;28;20455;-77
2021/06/25 06:53:03;;;;;;;49.70;25.55;;;17.10;99.90;;;;;;5003558;28;20443;-76
2021/06/25 06:55:29;;;;;;;41.97;24.95;;;;;;;;;;5004569;28;20060;-78
2021/06/25 06:57:55;;;;;;;44.05;24.88;;;;;;;;;;4996367;28;20488;-80
2021/06/25 07:00:21;;;;;;;49.55;26.02;;;17.10;99.90;;;;;;4998293;28;20065;-77
2021/06/25 07:02:48;;;;;;;43.08;25.77;;;;;;;;;;5013186;28;20119;-77
2021/06/25 07:05:15;;;;;;;44.42;25.73;;;17.10;99.90;;;;;;4993036;28;20080;-75
2021/06/25 07:07:41;;;;;;;45.05;25.27;;;;;;;;;;4998186;28;20133;-77
2021/06/25 07:10:08;;;;;;;47.15;27.83;;;17.10;99.90;;;;;;5001254;28;20072;-76
2021/06/25 07:12:34;;;;;;;45.17;27.85;;;;;;;;;;5008604;28;20085;-77
2021/06/25 07:15:00;;;;;;;47.55;26.98;;;;;;;;;;4997798;28;20027;-78
2021/06/25 07:17:26;;;;;;;45.70;26.67;;;;;;;;;;4999133;28;20113;-76
2021/06/25 07:19:52;;;;;;;50.42;27.13;;;;;;;;;;5012051;28;20079;-79
2021/06/25 07:22:18;;;;;;;50.67;26.90;;;;;;;;;;5016426;28;20084;-77
2021/06/25 07:24:44;;;;;;;64.65;30.20;;;;;;;;;;5005365;28;20033;-77
2021/06/25 07:27:10;;;;;;;52.35;29.30;;;;;;;;;;5012193;28;20034;-77
2021/06/25 07:29:36;;;;;;;47.70;27.58;;;;;;;;;;4998345;28;20027;-79
2021/06/25 07:32:03;;;;;;;41.78;26.60;;;17.20;99.90;;;;;;5000045;28;20338;-76
2021/06/25 07:34:28;;;;;;;42.05;25.80;;;17.40;99.90;;;;;;5003056;28;20104;-77
2021/06/25 07:36:54;;;;;;;46.28;26.13;;;;;;;;;;4992911;28;20132;-77
2021/06/25 07:39:20;;;;;;;42.50;26.88;;;;;;;;;;5007601;28;20037;-77
2021/06/25 07:41:46;;;;;;;48.42;29.17;;;;;;;;;;4997126;28;20027;-77
2021/06/25 07:44:12;;;;;;;45.83;27.13;;;;;;;;;;4988775;28;20022;-76
2021/06/25 07:46:38;;;;;;;43.75;26.63;;;17.90;99.90;;;;;;4994521;28;20608;-78
2021/06/25 07:49:04;;;;;;;42.70;25.98;;;;;;;;;;5004471;28;20475;-75
2021/06/25 07:51:30;;;;;;;43.47;27.05;;;;;;;;;;5017769;28;20037;-76
2021/06/25 07:53:56;;;;;;;46.55;26.55;;;;;;;;;;5013217;28;20185;-77
2021/06/25 07:56:22;;;;;;;42.75;26.27;;;;;;;;;;5010477;28;20094;-76
2021/06/25 07:58:48;;;;;;;53.28;25.88;;;17.90;99.90;;;;;;4990887;28;20141;-76
2021/06/25 08:01:14;;;;;;;46.72;26.98;;;;;;;;;;4995474;28;20132;-76
2021/06/25 08:03:40;;;;;;;44.33;27.30;;;;;;;;;;4994506;28;20026;-76
2021/06/25 08:06:06;;;;;;;38.42;26.15;;;;;;;;;;4990078;28;20269;-80
2021/06/25 08:08:33;;;;;;;49.10;29.25;;;;;;;;;;4992968;28;20022;-75
2021/06/25 08:10:59;;;;;;;48.83;27.52;;;;;;;;;;4992238;28;20033;-76
2021/06/25 08:13:25;;;;;;;44.40;26.33;;;18.60;99.90;;;;;;5004002;28;20030;-77
2021/06/25 08:15:50;;;;;;;37.60;25.02;;;18.80;99.90;;;;;;4986180;28;20034;-76
2021/06/25 08:18:17;;;;;;;38.08;23.42;;;19.00;99.90;;;;;;4991397;28;20041;-77
2021/06/25 08:20:44;;;;;;;46.10;25.70;;;17.40;99.90;;;;;;4992090;28;20061;-75
2021/06/25 08:23:10;;;;;;;43.33;24.45;;;;;;;;;;4987261;28;20037;-76
2021/06/25 08:25:36;;;;;;;39.88;25.85;;;;;;;;;;4989421;28;20025;-76
2021/06/25 08:28:02;;;;;;;35.78;23.35;;;;;;;;;;5008750;28;20392;-77
2021/06/25 08:30:28;;;;;;;40.85;25.45;;;;;;;;;;4991962;28;20507;-78
2021/06/25 08:32:54;;;;;;;38.00;24.38;;;19.90;99.90;;;;;;5005729;28;20080;-76
2021/06/25 08:35:21;;;;;;;36.25;23.30;;;;;;;;;;5002008;28;20116;-78
2021/06/25 08:37:48;;;;;;;39.65;24.08;;;19.80;99.90;;;;;;4992914;28;20246;-78
2021/06/25 08:40:14;;;;;;;35.75;22.67;;;;;;;;;;5011551;28;20061;-78
2021/06/25 08:42:41;;;;;;;38.53;24.15;;;;;;;;;;4994684;28;20029;-76
2021/06/25 08:45:08;;;;;;;41.22;24.40;;;20.00;99.90;;;;;;5007146;28;20168;-76
2021/06/25 08:47:49;;;;;;;42.85;25.02;;;20.10;99.90;;;;;;5015302;28;20018;-77
2021/06/25 08:50:17;;;;;;;36.80;23.40;;;20.30;99.90;;;;;;4997362;28;20026;-78
2021/06/25 08:52:45;;;;;;;33.53;22.05;;;20.20;99.90;;;;;;4999716;28;20041;-77
2021/06/25 08:55:12;;;;;;;34.90;23.55;;;20.20;99.90;;;;;;5003057;28;20119;-76
2021/06/25 08:57:38;;;;;;;31.70;21.58;;;;;;;;;;5003524;28;20037;-78
2021/06/25 09:00:06;;;;;;;36.83;23.77;;;20.40;99.90;;;;;;4996737;28;20492;-75
2021/06/25 09:02:33;;;;;;;36.15;22.92;;;20.40;99.90;;;;;;5007447;28;20515;-76
2021/06/25 09:04:59;;;;;;;33.28;21.90;;;;;;;;;;5006489;28;20030;-76
2021/06/25 09:07:58;;;;;;;34.17;21.67;;;20.20;99.90;;;;;;4994400;28;20316;-76
2021/06/25 09:10:39;;;;;;;36.53;21.65;;;19.90;99.90;;;;;;5010146;28;20038;-76
2021/06/25 09:13:07;;;;;;;33.78;21.13;;;19.70;99.90;;;;;;4989923;28;20034;-76
2021/06/25 09:15:34;;;;;;;32.28;20.23;;;19.50;99.90;;;;;;4995417;28;20026;-76
2021/06/25 09:18:05;;;;;;;34.03;19.05;;;19.50;99.90;;;;;;5005500;28;20037;-75
2021/06/25 09:20:36;;;;;;;31.23;19.48;;;19.30;99.90;;;;;;4998818;28;20619;-76
2021/06/25 09:23:04;;;;;;;31.90;19.83;;;19.40;99.90;;;;;;5015712;28;20041;-76
2021/06/25 09:25:30;;;;;;;32.10;21.20;;;19.40;99.90;;;;;;4995971;28;20037;-77
2021/06/25 09:27:57;;;;;;;33.63;21.17;;;19.40;99.90;;;;;;5002854;28;20496;-76
2021/06/25 09:30:26;;;;;;;33.17;21.00;;;19.30;99.90;;;;;;5006823;28;20683;-76
2021/06/25 09:32:52;;;;;;;31.05;20.00;;;;;;;;;;5010355;28;20509;-76
2021/06/25 09:35:20;;;;;;;34.60;20.80;;;19.70;99.90;;;;;;4996869;28;20306;-78
2021/06/25 09:37:50;;;;;;;30.90;20.23;;;19.90;99.90;;;;;;5016786;28;20807;-78
2021/06/25 09:40:17;;;;;;;32.53;18.23;;;20.30;99.40;;;;;;4994659;28;21977;-78
2021/06/25 09:42:45;;;;;;;27.42;18.25;;;20.60;98.90;;;;;;4997620;28;20060;-78
2021/06/25 09:45:20;;;;;;;28.92;18.95;;;;;;;;;;4995773;28;20057;-77
2021/06/25 09:47:54;;;;;;;33.20;20.05;;;20.50;98.30;;;;;;5000425;28;20024;-76
2021/06/25 09:50:29;;;;;;;26.08;17.23;;;20.50;98.20;;;;;;5002079;28;20025;-77
2021/06/25 09:52:57;;;;;;;27.13;17.10;;;20.30;99.00;;;;;;5000449;28;20026;-79
2021/06/25 09:55:28;;;;;;;21.90;14.73;;;20.40;98.10;;;;;;4999398;28;20060;-77
2021/06/25 09:58:23;;;;;;;22.77;14.48;;;20.30;97.40;;;;;;5014864;28;20032;-78
2021/06/25 10:03:52;;;;;;;18.13;12.73;;;20.20;97.70;;;;;;4973539;28;20041;-77
2021/06/25 10:06:23;;;;;;;22.33;13.00;;;20.40;97.80;;;;;;4986612;28;20567;-78
2021/06/25 10:08:50;;;;;;;19.85;12.48;;;20.50;97.30;;;;;;4997514;28;20325;-77
2021/06/25 10:11:18;;;;;;;20.45;13.07;;;20.70;97.10;;;;;;4987655;28;20037;-78
2021/06/25 10:13:46;;;;;;;17.00;12.80;;;20.80;97.30;;;;;;4980587;28;20038;-78
2021/06/25 10:16:12;;;;;;;16.38;11.68;;;;;;;;;;4972618;28;20049;-77
2021/06/25 10:18:45;;;;;;;15.98;10.05;;;21.00;96.80;;;;;;4989020;28;20042;-79
2021/06/25 10:21:14;;;;;;;14.40;9.55;;;20.90;95.50;;;;;;4978934;28;20096;-80
2021/06/25 10:23:47;;;;;;;11.50;8.02;;;20.90;94.80;;;;;;5009115;28;20030;-79
2021/06/25 10:26:14;;;;;;;10.35;6.95;;;20.00;93.90;;;;;;4995699;28;20487;-77
2021/06/25 10:28:43;;;;;;;9.35;6.90;;;21.20;93.20;;;;;;4994798;28;20030;-77
2021/06/25 10:31:09;;;;;;;10.52;6.00;;;21.30;92.40;;;;;;5011112;28;20037;-76
2021/06/25 10:33:37;;;;;;;7.47;5.15;;;21.40;92.70;;;;;;5010847;28;20048;-76
2021/06/25 10:36:05;;;;;;;9.00;6.70;;;21.40;92.90;;;;;;5012201;28;20056;-75
2021/06/25 10:38:31;;;;;;;8.80;5.32;;;;;;;;;;5013717;28;20030;-76
2021/06/25 10:41:03;;;;;;;7.30;4.82;;;21.60;90.70;;;;;;5012869;28;20377;-77
2021/06/25 10:43:41;;;;;;;7.63;5.30;;;21.60;90.40;;;;;;5002126;28;20060;-75
2021/06/25 10:46:29;;;;;;;9.38;5.10;;;21.30;90.40;;;;;;4997921;28;20064;-75
2021/06/25 10:49:15;;;;;;;7.65;5.28;;;21.30;90.00;;;;;;4996908;28;20025;-76
2021/06/25 10:51:43;;;;;;;11.25;6.68;;;22.00;90.40;;;;;;5002620;28;20144;-76
2021/06/25 10:54:20;;;;;;;11.48;6.22;;;21.30;90.20;;;;;;4997865;28;20133;-75
2021/06/25 10:56:49;;;;;;;7.78;5.88;;;21.60;91.20;;;;;;5010048;28;20155;-76
2021/06/25 10:59:23;;;;;;;8.90;6.28;;;22.10;87.10;;;;;;5007405;28;20137;-76
2021/06/25 11:01:55;;;;;;;9.60;7.88;;;22.00;89.30;;;;;;5001473;28;20037;-75
2021/06/25 11:04:30;;;;;;;8.20;5.78;;;22.30;89.40;;;;;;5008815;28;20124;-77
2021/06/25 11:06:58;;;;;;;9.88;7.13;;;22.50;88.40;;;;;;5009994;28;20030;-76
2021/06/25 11:09:27;;;;;;;7.35;6.07;;;22.30;88.90;;;;;;5012933;28;20041;-75
2021/06/25 11:12:16;;;;;;;9.45;5.95;;;22.90;87.50;;;;;;5005794;28;20065;-76
2021/06/25 11:14:42;;;;;;;9.38;6.20;;;;;;;;;;4988720;28;20041;-76
2021/06/25 11:17:08;;;;;;;8.57;5.35;;;;;;;;;;4996280;28;20030;-76
2021/06/25 11:19:41;;;;;;;7.22;4.57;;;22.80;84.10;;;;;;5002056;28;20023;-77
2021/06/25 11:22:35;;;;;;;6.72;4.25;;;22.70;82.10;;;;;;5001546;28;20026;-76
2021/06/25 11:25:01;;;;;;;5.47;4.28;;;;;;;;;;4992010;28;20113;-78
2021/06/25 11:28:06;;;;;;;5.07;3.88;;;22.90;80.60;;;;;;5007310;28;20054;-76
2021/06/25 11:30:50;;;;;;;5.57;3.97;;;23.30;80.60;;;;;;5008984;28;20165;-77
2021/06/25 11:33:36;;;;;;;7.38;4.40;;;23.30;80.80;;;;;;5000231;28;20035;-77
2021/06/25 11:36:29;;;;;;;6.22;4.32;;;23.50;78.40;;;;;;4991975;28;20395;-76
2021/06/25 11:39:21;;;;;;;6.40;4.05;;;23.50;79.70;;;;;;5008768;28;20026;-77
2021/06/25 11:42:08;;;;;;;6.95;4.47;;;23.20;80.20;;;;;;4991682;28;20076;-75
2021/06/25 11:44:40;;;;;;;6.80;4.88;;;23.20;79.80;;;;;;5003937;28;20048;-76
2021/06/25 11:47:20;;;;;;;5.82;4.18;;;23.20;80.80;;;;;;4989305;28;20567;-78
2021/06/25 11:52:33;;;;;;;6.68;4.95;;;23.20;80.90;;;;;;4987438;28;20080;-75
2021/06/25 11:55:01;;;;;;;5.82;4.18;;;23.10;79.90;;;;;;5014729;28;20034;-74
2021/06/25 11:57:29;;;;;;;5.38;4.03;;;23.10;81.00;;;;;;4988568;28;20729;-76
2021/06/25 11:59:59;;;;;;;7.03;4.20;;;23.20;81.30;;;;;;5000540;28;20042;-75
2021/06/25 12:02:25;;;;;;;6.90;5.32;;;23.50;79.80;;;;;;5002114;28;20079;-75
2021/06/25 12:04:51;;;;;;;5.78;4.53;;;23.50;78.80;;;;;;5007700;28;20052;-76
2021/06/25 12:07:19;;;;;;;6.93;4.32;;;23.40;80.70;;;;;;5003665;28;20033;-76
2021/06/25 12:09:49;;;;;;;7.70;4.90;;;20.80;78.10;;;;;;5007788;28;20026;-76
2021/06/25 12:12:25;;;;;;;4.85;4.10;;;23.50;80.90;;;;;;5011324;28;20032;-76
2021/06/25 12:14:55;;;;;;;6.95;5.10;;;22.90;82.50;;;;;;5009416;28;20061;-76
2021/06/25 12:17:24;;;;;;;7.00;4.60;;;23.00;83.80;;;;;;5000426;28;20087;-76
2021/06/25 12:20:01;;;;;;;6.63;4.30;;;23.20;83.60;;;;;;4990395;28;20042;-76
2021/06/25 12:22:27;;;;;;;5.93;4.50;;;22.90;82.60;;;;;;5001870;28;20042;-77
2021/06/25 12:24:56;;;;;;;8.95;5.15;;;23.50;80.90;;;;;;4989503;28;20050;-76
2021/06/25 12:27:38;;;;;;;8.63;4.63;;;23.60;78.90;;;;;;5011706;28;20034;-78
2021/06/25 12:30:11;;;;;;;6.22;3.95;;;23.50;81.50;;;;;;4981570;28;20026;-76
2021/06/25 12:32:37;;;;;;;5.50;4.07;;;23.40;79.80;;;;;;4985652;28;20021;-77
2021/06/25 12:35:03;;;;;;;5.53;3.90;;;23.30;80.50;;;;;;4987465;28;20475;-76
2021/06/25 12:37:50;;;;;;;5.30;4.10;;;23.20;81.20;;;;;;4984543;28;20037;-75
2021/06/25 12:40:55;;;;;;;7.38;3.47;;;23.30;80.10;;;;;;4985435;28;20428;-75
2021/06/25 12:43:28;;;;;;;5.80;3.80;;;23.20;80.40;;;;;;4997394;28;20515;-76
2021/06/25 12:46:00;;;;;;;5.05;3.28;;;23.20;81.40;;;;;;5009536;28;20624;-77
2021/06/25 12:48:28;;;;;;;6.93;4.03;;;23.20;80.90;;;;;;4990870;28;20027;-77
2021/06/25 12:51:15;;;;;;;5.50;3.70;;;22.60;81.70;;;;;;4992665;28;20038;-75
2021/06/25 12:53:43;;;;;;;5.57;4.05;;;23.10;81.30;;;;;;4996426;28;20484;-76
2021/06/25 12:56:17;;;;;;;7.10;3.60;;;23.10;81.40;;;;;;4998090;28;20026;-76
2021/06/25 12:58:45;;;;;;;5.45;4.13;;;23.10;80.90;;;;;;4995569;28;20041;-76
2021/06/25 13:01:12;;;;;;;5.78;3.60;;;23.10;80.70;;;;;;5007407;28;20384;-75
2021/06/25 13:03:41;;;;;;;7.93;3.50;;;23.20;80.90;;;;;;5002211;28;20540;-76
2021/06/25 13:06:33;;;;;;;4.30;3.15;;;23.20;80.40;;;;;;5017579;28;20034;-76
2021/06/25 13:09:01;;;;;;;4.30;3.33;;;23.30;80.80;;;;;;5011884;28;20060;-75
2021/06/25 13:11:29;;;;;;;4.40;3.40;;;23.40;78.50;;;;;;4988682;28;20172;-76